Time;durP1;ratioP1;P1;durP2;ratioP2;P2;SDS_P1;SDS_P2;PMS_P1;PMS_P2;Temp;Humidity;BMP_temperature;BMP_pressure;BME280_temperature;BME280_humidity;BME280_pressure;Samples;Min_cycle;Max_cycle;Signal;HPM_P1;HPM_P2
2022/02/18 00:00:09;;;;;;;8.40;2.10;;;6.60;82.20;;;;;;2069577;28;20569;-66
2022/02/18 00:01:12;;;;;;;8.70;1.80;;;6.60;82.00;;;;;;2067222;28;20654;-67
2022/02/18 00:02:13;;;;;;;6.72;2.05;;;6.60;81.90;;;;;;2068901;28;20212;-67
2022/02/18 00:03:15;;;;;;;9.00;2.33;;;6.60;82.40;;;;;;2067885;28;20679;-67
2022/02/18 00:04:15;;;;;;;15.43;2.45;;;6.60;83.10;;;;;;2077410;28;20224;-67
2022/02/18 00:05:16;;;;;;;7.63;2.07;;;6.70;82.10;;;;;;2075869;28;20242;-67
2022/02/18 00:06:17;;;;;;;10.37;2.60;;;6.70;81.70;;;;;;2078352;28;20935;-67
2022/02/18 00:07:18;;;;;;;9.63;2.10;;;6.70;81.60;;;;;;2081266;28;20782;-67
2022/02/18 00:08:19;;;;;;;12.73;2.87;;;6.70;81.60;;;;;;2075016;28;20174;-65
2022/02/18 00:09:20;;;;;;;13.90;2.25;;;6.60;81.90;;;;;;2072892;28;20614;-68
2022/02/18 00:10:20;;;;;;;12.00;2.47;;;6.60;82.40;;;;;;2072941;28;20193;-67
2022/02/18 00:11:21;;;;;;;10.23;2.00;;;6.60;82.30;;;;;;2072920;28;20551;-68
2022/02/18 00:12:22;;;;;;;12.00;2.23;;;6.60;82.40;;;;;;2064092;28;20229;-68
2022/02/18 00:13:23;;;;;;;13.27;2.27;;;6.60;82.70;;;;;;2056174;28;20180;-67
2022/02/18 00:14:24;;;;;;;11.77;2.67;;;6.60;82.70;;;;;;2064230;28;20236;-67
2022/02/18 00:15:25;;;;;;;7.13;1.80;;;6.60;83.10;;;;;;2072607;28;20216;-67
2022/02/18 00:16:25;;;;;;;10.03;2.47;;;6.60;82.90;;;;;;2072955;28;20178;-68
2022/02/18 00:17:26;;;;;;;10.77;2.00;;;6.70;82.30;;;;;;2072908;28;20269;-67
2022/02/18 00:18:27;;;;;;;7.87;2.20;;;6.60;82.50;;;;;;2073079;28;20701;-67
2022/02/18 00:19:29;;;;;;;11.77;2.53;;;6.60;82.70;;;;;;2064169;28;20802;-67
2022/02/18 00:20:31;;;;;;;12.15;2.40;;;6.60;82.80;;;;;;2056308;28;20210;-67
2022/02/18 00:21:32;;;;;;;8.73;2.35;;;6.60;82.90;;;;;;2064494;28;20245;-67
2022/02/18 00:22:34;;;;;;;7.27;2.70;;;6.60;83.60;;;;;;2072900;28;20177;-67
2022/02/18 00:23:35;;;;;;;11.05;2.33;;;6.50;83.80;;;;;;2064092;28;20512;-67
2022/02/18 00:24:36;;;;;;;11.97;2.70;;;6.60;83.40;;;;;;2064131;28;20682;-67
2022/02/18 00:25:38;;;;;;;12.27;2.03;;;6.60;83.50;;;;;;2072483;28;20284;-67
2022/02/18 00:26:39;;;;;;;12.30;2.17;;;6.60;83.30;;;;;;2072968;28;20189;-66
2022/02/18 00:27:40;;;;;;;7.60;1.90;;;6.70;83.20;;;;;;2064001;28;20265;-67
2022/02/18 00:28:41;;;;;;;9.98;2.15;;;6.60;83.30;;;;;;2064059;28;20178;-65
2022/02/18 00:29:42;;;;;;;8.60;2.67;;;6.70;83.50;;;;;;2072755;28;20674;-67
2022/02/18 00:30:43;;;;;;;10.50;2.50;;;6.70;83.50;;;;;;2072765;28;20173;-66
2022/02/18 00:31:44;;;;;;;9.87;2.33;;;6.70;83.50;;;;;;2072773;28;20184;-67
2022/02/18 00:32:46;;;;;;;10.23;2.20;;;6.60;83.60;;;;;;2072897;28;20424;-66
2022/02/18 00:33:46;;;;;;;9.90;2.28;;;6.60;84.00;;;;;;2072797;28;20682;-67
2022/02/18 00:34:48;;;;;;;13.23;2.73;;;6.70;84.10;;;;;;2063877;28;20237;-67
2022/02/18 00:35:48;;;;;;;9.20;1.70;;;6.60;84.10;;;;;;2064053;28;20895;-67
2022/02/18 00:36:49;;;;;;;12.70;2.97;;;6.60;84.20;;;;;;2064139;28;20167;-67
2022/02/18 00:37:57;;;;;;;6.33;2.03;;;6.60;84.40;;;;;;2063905;28;20230;-67
2022/02/18 00:38:58;;;;;;;6.18;2.00;;;6.50;84.90;;;;;;2064201;28;20167;-68
2022/02/18 00:39:59;;;;;;;8.48;2.35;;;6.50;85.30;;;;;;2056899;28;20175;-66
2022/02/18 00:41:00;;;;;;;12.07;2.28;;;6.50;85.60;;;;;;2064309;28;20218;-67
2022/02/18 00:42:00;;;;;;;7.03;1.87;;;6.50;86.00;;;;;;2064237;28;20650;-67
2022/02/18 00:43:02;;;;;;;8.70;2.50;;;6.50;86.40;;;;;;2056066;28;20859;-67
2022/02/18 00:44:03;;;;;;;13.32;2.58;;;6.40;87.10;;;;;;2055647;28;20699;-68
2022/02/18 00:45:04;;;;;;;6.38;1.83;;;6.40;87.50;;;;;;2063823;28;20685;-67
2022/02/18 00:46:05;;;;;;;12.73;2.63;;;6.50;87.30;;;;;;2064072;28;20555;-68
2022/02/18 00:47:05;;;;;;;8.13;2.37;;;6.60;86.90;;;;;;2064099;28;20217;-67
2022/02/18 00:48:06;;;;;;;12.53;2.23;;;6.50;87.10;;;;;;2072768;28;20170;-68
2022/02/18 00:49:07;;;;;;;8.27;2.77;;;6.50;86.90;;;;;;2072919;28;20174;-67
2022/02/18 00:50:08;;;;;;;12.33;2.00;;;6.50;87.20;;;;;;2072838;28;20228;-66
2022/02/18 00:51:09;;;;;;;8.40;2.15;;;6.50;87.50;;;;;;2072584;28;20177;-65
2022/02/18 00:52:10;;;;;;;13.07;2.63;;;6.50;88.30;;;;;;2072846;28;20205;-68
2022/02/18 00:53:11;;;;;;;11.30;2.22;;;6.50;88.00;;;;;;2072802;28;20251;-69
2022/02/18 00:54:12;;;;;;;12.07;2.07;;;6.50;88.30;;;;;;2064072;28;20236;-65
2022/02/18 00:55:13;;;;;;;11.38;1.90;;;6.50;88.30;;;;;;2063592;28;20214;-67
2022/02/18 00:56:14;;;;;;;7.23;1.83;;;6.50;88.30;;;;;;2072049;28;20189;-66
2022/02/18 00:57:16;;;;;;;6.65;2.15;;;6.50;88.50;;;;;;2071959;28;20232;-67
2022/02/18 00:58:20;;;;;;;13.50;3.05;;;6.50;88.90;;;;;;2055840;28;20171;-66
2022/02/18 00:59:21;;;;;;;5.95;2.15;;;6.50;88.60;;;;;;2056774;28;20236;-67
2022/02/18 01:00:22;;;;;;;10.27;2.17;;;6.60;88.40;;;;;;2072744;28;20232;-67
2022/02/18 01:01:22;;;;;;;13.53;2.63;;;6.60;88.20;;;;;;2072814;28;20193;-67
2022/02/18 01:02:23;;;;;;;14.67;2.53;;;6.50;88.60;;;;;;2072835;28;20178;-67
2022/02/18 01:03:24;;;;;;;4.97;2.00;;;6.50;89.50;;;;;;2072752;28;20185;-69
2022/02/18 01:04:25;;;;;;;8.67;2.33;;;6.40;89.90;;;;;;2072883;28;20186;-67
2022/02/18 01:05:25;;;;;;;10.13;2.53;;;6.40;89.60;;;;;;2072387;28;20272;-66
2022/02/18 01:06:27;;;;;;;14.33;2.10;;;6.40;90.00;;;;;;2063960;28;20170;-66
2022/02/18 01:07:27;;;;;;;11.15;2.55;;;6.40;90.30;;;;;;2063817;28;20178;-66
2022/02/18 01:08:28;;;;;;;12.17;2.30;;;6.40;90.40;;;;;;2063997;28;20178;-67
2022/02/18 01:09:29;;;;;;;13.20;2.40;;;6.30;90.90;;;;;;2063862;28;20179;-66
2022/02/18 01:10:30;;;;;;;9.67;1.90;;;6.30;90.90;;;;;;2055885;28;20206;-66
2022/02/18 01:11:30;;;;;;;8.57;2.20;;;6.30;91.20;;;;;;2064117;28;20670;-68
2022/02/18 01:12:31;;;;;;;14.97;2.40;;;6.30;91.20;;;;;;2072696;28;20646;-67
2022/02/18 01:13:32;;;;;;;7.27;1.83;;;6.30;91.60;;;;;;2071983;28;20702;-67
2022/02/18 01:14:33;;;;;;;11.97;1.93;;;6.20;91.80;;;;;;2071959;28;20174;-67
2022/02/18 01:15:34;;;;;;;10.83;2.67;;;6.30;91.70;;;;;;2072266;28;20712;-66
2022/02/18 01:16:34;;;;;;;8.43;2.60;;;6.30;91.50;;;;;;2072690;28;20260;-67
2022/02/18 01:17:35;;;;;;;8.97;1.93;;;6.30;91.50;;;;;;2072703;28;20179;-67
2022/02/18 01:18:36;;;;;;;8.30;2.10;;;6.30;91.60;;;;;;2063942;28;20803;-66
2022/02/18 01:19:37;;;;;;;10.25;2.40;;;6.30;91.80;;;;;;2063942;28;20183;-67
2022/02/18 01:20:39;;;;;;;14.53;2.37;;;6.30;91.80;;;;;;2063798;28;20686;-66
2022/02/18 01:21:39;;;;;;;16.88;2.45;;;6.30;91.70;;;;;;2055860;28;20428;-68
2022/02/18 01:22:40;;;;;;;12.93;2.73;;;6.20;92.20;;;;;;2063851;28;20256;-67
2022/02/18 01:23:41;;;;;;;7.23;2.00;;;6.20;92.70;;;;;;2072523;28;20857;-66
2022/02/18 01:24:42;;;;;;;6.20;2.30;;;6.20;92.70;;;;;;2063548;28;20185;-66
2022/02/18 01:25:43;;;;;;;9.73;2.83;;;6.10;93.20;;;;;;2063582;28;20205;-66
2022/02/18 01:26:43;;;;;;;8.07;1.65;;;6.10;92.90;;;;;;2072623;28;20183;-67
2022/02/18 01:27:44;;;;;;;8.20;2.50;;;6.10;93.30;;;;;;2072488;28;20689;-65
2022/02/18 01:28:45;;;;;;;15.67;2.63;;;6.10;93.30;;;;;;2063766;28;21268;-66
2022/02/18 01:29:45;;;;;;;7.93;2.20;;;6.10;93.10;;;;;;2063867;28;20862;-67
2022/02/18 01:30:46;;;;;;;11.50;2.20;;;6.10;92.90;;;;;;2063661;28;20170;-66
2022/02/18 01:31:47;;;;;;;8.17;2.57;;;6.20;92.80;;;;;;2072609;28;20178;-67
2022/02/18 01:32:48;;;;;;;9.60;2.30;;;6.10;93.00;;;;;;2072445;28;20181;-67
2022/02/18 01:33:48;;;;;;;9.43;2.10;;;6.10;93.40;;;;;;2063806;28;20185;-66
2022/02/18 01:34:49;;;;;;;9.00;2.03;;;6.10;93.10;;;;;;2063580;28;20748;-66
2022/02/18 01:35:50;;;;;;;8.97;2.37;;;6.10;92.90;;;;;;2063613;28;20858;-67
2022/02/18 01:36:51;;;;;;;12.82;2.97;;;6.20;92.70;;;;;;2072446;28;20268;-67
2022/02/18 01:37:53;;;;;;;8.90;2.30;;;6.20;92.50;;;;;;2065581;28;20566;-68
2022/02/18 01:38:54;;;;;;;11.00;2.38;;;6.20;92.30;;;;;;2071761;28;20169;-67
2022/02/18 01:39:55;;;;;;;7.90;2.22;;;6.20;92.40;;;;;;2071847;28;20166;-67
2022/02/18 01:40:56;;;;;;;14.80;2.63;;;6.20;92.40;;;;;;2063681;28;20176;-67
2022/02/18 01:41:57;;;;;;;12.30;2.90;;;6.20;92.50;;;;;;2063765;28;20170;-67
2022/02/18 01:42:59;;;;;;;12.60;2.38;;;6.20;92.30;;;;;;2063818;28;20167;-66
2022/02/18 01:44:03;;;;;;;9.40;2.00;;;6.20;92.30;;;;;;2071932;28;20617;-67
2022/02/18 01:45:05;;;;;;;14.63;2.20;;;6.30;92.80;;;;;;2071822;28;20196;-67
2022/02/18 01:46:05;;;;;;;6.50;1.98;;;6.20;92.80;;;;;;2071853;28;20174;-67
2022/02/18 01:47:12;;;;;;;14.70;3.17;;;6.20;92.70;;;;;;2071939;28;20181;-67
2022/02/18 01:48:12;;;;;;;11.02;2.10;;;6.20;92.70;;;;;;2071970;28;20184;-67
2022/02/18 01:49:13;;;;;;;7.33;2.07;;;6.20;92.50;;;;;;2063590;28;20205;-67
2022/02/18 01:50:14;;;;;;;8.13;1.93;;;6.20;92.70;;;;;;2071871;28;20239;-66
2022/02/18 01:51:19;;;;;;;14.00;2.17;;;6.20;92.50;;;;;;2080698;28;20210;-69
2022/02/18 01:52:24;;;;;;;14.35;4.00;;;6.30;92.40;;;;;;2080620;28;20188;-67
2022/02/18 01:53:25;;;;;;;11.18;2.03;;;6.30;92.20;;;;;;2071475;28;20190;-66
2022/02/18 01:54:27;;;;;;;11.27;2.60;;;6.30;92.20;;;;;;2071959;28;20178;-67
2022/02/18 01:55:28;;;;;;;11.70;2.20;;;6.30;92.10;;;;;;2071516;28;20201;-67
2022/02/18 01:56:31;;;;;;;16.80;2.53;;;6.20;92.30;;;;;;2072815;28;20201;-67
2022/02/18 01:57:32;;;;;;;12.30;2.63;;;6.20;92.60;;;;;;2073436;28;20177;-67
2022/02/18 01:58:34;;;;;;;13.73;2.63;;;6.20;92.50;;;;;;2073899;28;20192;-67
2022/02/18 01:59:35;;;;;;;11.05;2.53;;;6.20;92.50;;;;;;2082130;28;21019;-68
2022/02/18 02:00:36;;;;;;;14.93;2.72;;;6.20;92.50;;;;;;2073363;28;20291;-67
2022/02/18 02:01:37;;;;;;;8.10;2.20;;;6.10;92.50;;;;;;2073352;28;20201;-67
2022/02/18 02:02:38;;;;;;;9.40;1.90;;;6.10;92.80;;;;;;2082174;28;20574;-66
2022/02/18 02:03:40;;;;;;;9.90;2.33;;;6.10;92.30;;;;;;2082227;28;20185;-66
2022/02/18 02:04:45;;;;;;;7.88;1.80;;;6.20;92.20;;;;;;2073281;28;20209;-66
2022/02/18 02:05:45;;;;;;;9.65;1.98;;;6.20;92.40;;;;;;2065458;28;20198;-67
2022/02/18 02:06:47;;;;;;;10.60;2.30;;;6.20;92.20;;;;;;2065257;28;20571;-67
2022/02/18 02:07:48;;;;;;;12.25;2.05;;;6.20;92.00;;;;;;2065275;28;20245;-66
2022/02/18 02:08:49;;;;;;;8.45;2.25;;;6.20;91.90;;;;;;2065255;28;20170;-67
2022/02/18 02:09:49;;;;;;;9.27;2.50;;;6.10;92.10;;;;;;2073372;28;20763;-66
2022/02/18 02:10:50;;;;;;;10.97;2.37;;;6.10;92.10;;;;;;2082303;28;20708;-67
2022/02/18 02:11:51;;;;;;;11.37;2.13;;;6.10;92.10;;;;;;2082047;28;20557;-68
2022/02/18 02:12:53;;;;;;;14.68;2.20;;;6.10;92.20;;;;;;2082188;28;20169;-67
2022/02/18 02:13:54;;;;;;;9.98;2.35;;;6.10;92.30;;;;;;2073323;28;20178;-68
2022/02/18 02:14:55;;;;;;;8.27;2.30;;;6.10;92.00;;;;;;2065187;28;20206;-67
2022/02/18 02:15:56;;;;;;;8.27;2.55;;;6.10;91.40;;;;;;2065100;28;20404;-67
2022/02/18 02:16:57;;;;;;;9.90;1.90;;;6.10;91.40;;;;;;2065259;28;20163;-67
2022/02/18 02:18:02;;;;;;;9.40;2.20;;;6.10;91.30;;;;;;2065245;28;20194;-67
2022/02/18 02:19:03;;;;;;;10.65;2.25;;;6.10;91.20;;;;;;2065792;28;20250;-66
2022/02/18 02:20:06;;;;;;;12.05;2.67;;;6.10;91.40;;;;;;2073252;28;20177;-67
2022/02/18 02:21:12;;;;;;;7.82;2.50;;;6.10;91.30;;;;;;2073472;28;20253;-66
2022/02/18 02:22:15;;;;;;;8.82;2.38;;;6.00;91.80;;;;;;2074098;28;20674;-67
2022/02/18 02:23:16;;;;;;;9.55;2.53;;;5.90;92.20;;;;;;2082254;28;20177;-67
2022/02/18 02:24:18;;;;;;;6.95;1.90;;;5.90;92.50;;;;;;2082247;28;20680;-67
2022/02/18 02:25:18;;;;;;;9.07;2.28;;;5.90;92.50;;;;;;2073238;28;20682;-67
2022/02/18 02:26:19;;;;;;;11.43;2.33;;;5.90;92.60;;;;;;2073454;28;20192;-66
2022/02/18 02:27:22;;;;;;;10.43;1.97;;;5.70;92.80;;;;;;2073456;28;20201;-66
2022/02/18 02:28:23;;;;;;;10.82;2.17;;;5.70;93.00;;;;;;2065424;28;20186;-67
2022/02/18 02:29:24;;;;;;;8.00;2.13;;;5.70;92.70;;;;;;2065442;28;20175;-67
2022/02/18 02:30:24;;;;;;;11.13;2.30;;;5.80;92.40;;;;;;2073236;28;20201;-67
2022/02/18 02:31:25;;;;;;;10.40;2.10;;;5.80;92.40;;;;;;2081466;28;20524;-67
2022/02/18 02:32:26;;;;;;;9.37;2.10;;;5.80;92.20;;;;;;2082114;28;20256;-67
2022/02/18 02:33:27;;;;;;;7.50;2.03;;;5.80;92.30;;;;;;2073204;28;20562;-67
2022/02/18 02:34:27;;;;;;;5.73;1.70;;;5.80;92.30;;;;;;2073129;28;20189;-67
2022/02/18 02:35:28;;;;;;;9.53;2.03;;;5.70;92.10;;;;;;2081680;28;20205;-67
2022/02/18 02:36:29;;;;;;;8.00;2.40;;;5.70;92.10;;;;;;2081348;28;20200;-69
2022/02/18 02:37:30;;;;;;;10.10;2.27;;;5.70;92.00;;;;;;2073177;28;20638;-67
2022/02/18 02:38:31;;;;;;;9.50;1.97;;;5.70;92.20;;;;;;2072967;28;20197;-67
2022/02/18 02:39:33;;;;;;;7.33;1.77;;;5.70;92.10;;;;;;2081373;28;20184;-67
2022/02/18 02:40:34;;;;;;;11.52;1.80;;;5.70;91.70;;;;;;2082009;28;20181;-67
2022/02/18 02:41:35;;;;;;;13.80;2.20;;;5.80;91.30;;;;;;2073094;28;20583;-67
2022/02/18 02:42:35;;;;;;;10.53;2.87;;;5.80;91.30;;;;;;2057031;28;20179;-67
2022/02/18 02:43:36;;;;;;;9.47;1.90;;;5.80;91.00;;;;;;2064914;28;20266;-67
2022/02/18 02:44:37;;;;;;;12.67;2.10;;;5.80;90.80;;;;;;2081849;28;20195;-66
2022/02/18 02:45:38;;;;;;;9.00;2.40;;;5.90;90.30;;;;;;2081600;28;20232;-67
2022/02/18 02:46:39;;;;;;;8.38;1.70;;;5.90;90.00;;;;;;2082161;28;20177;-67
2022/02/18 02:47:45;;;;;;;10.10;2.00;;;6.00;90.00;;;;;;2082303;28;20261;-67
2022/02/18 02:48:46;;;;;;;8.82;1.70;;;5.90;90.00;;;;;;2073302;28;20173;-67
2022/02/18 02:49:46;;;;;;;9.10;2.47;;;5.90;90.10;;;;;;2073176;28;20545;-67
2022/02/18 02:50:47;;;;;;;11.00;2.20;;;5.90;90.00;;;;;;2081870;28;20222;-67
2022/02/18 02:51:48;;;;;;;9.63;1.87;;;5.90;90.00;;;;;;2073016;28;20178;-67
2022/02/18 02:52:49;;;;;;;7.90;1.92;;;5.90;89.80;;;;;;2065033;28;20167;-67
2022/02/18 02:53:49;;;;;;;9.40;1.90;;;5.90;89.30;;;;;;2073019;28;20774;-66
2022/02/18 02:54:50;;;;;;;4.23;1.90;;;6.00;88.30;;;;;;2073106;28;20243;-67
2022/02/18 02:55:51;;;;;;;8.60;1.90;;;6.00;88.10;;;;;;2072730;28;20202;-66
2022/02/18 02:56:56;;;;;;;5.93;2.30;;;6.00;87.90;;;;;;2072952;28;20186;-67
2022/02/18 02:57:57;;;;;;;7.10;1.90;;;6.00;88.10;;;;;;2073810;28;20772;-66
2022/02/18 02:58:58;;;;;;;11.83;2.63;;;6.00;87.90;;;;;;2081184;28;20185;-67
2022/02/18 02:59:58;;;;;;;4.50;2.23;;;6.00;87.50;;;;;;2081237;28;20180;-67
2022/02/18 03:00:59;;;;;;;6.97;2.23;;;6.10;87.00;;;;;;2072999;28;20193;-67
2022/02/18 03:02:00;;;;;;;9.57;2.20;;;6.00;87.10;;;;;;2073005;28;20178;-67
2022/02/18 03:03:01;;;;;;;8.00;2.43;;;6.00;87.20;;;;;;2073061;28;20170;-66
2022/02/18 03:04:01;;;;;;;8.20;2.37;;;6.00;87.30;;;;;;2073510;28;20170;-68
2022/02/18 03:05:03;;;;;;;8.00;2.13;;;6.00;87.20;;;;;;2073083;28;20174;-67
2022/02/18 03:06:04;;;;;;;7.85;2.10;;;6.00;87.60;;;;;;2064851;28;20516;-67
2022/02/18 03:07:04;;;;;;;10.53;2.20;;;6.00;87.60;;;;;;2064543;28;20183;-67
2022/02/18 03:08:05;;;;;;;5.60;1.67;;;6.00;87.60;;;;;;2082022;28;20568;-66
2022/02/18 03:09:10;;;;;;;7.77;2.07;;;6.00;87.60;;;;;;2081546;28;20200;-67
2022/02/18 03:10:11;;;;;;;5.70;2.13;;;5.90;87.40;;;;;;2073094;28;20192;-67
2022/02/18 03:11:14;;;;;;;9.13;1.70;;;6.00;87.30;;;;;;2072954;28;20181;-67
2022/02/18 03:12:15;;;;;;;7.50;1.80;;;6.00;87.50;;;;;;2081591;28;20189;-67
2022/02/18 03:13:16;;;;;;;9.07;1.77;;;5.90;88.10;;;;;;2081757;28;20622;-67
2022/02/18 03:14:16;;;;;;;9.50;1.93;;;6.00;88.10;;;;;;2081709;28;20183;-68
2022/02/18 03:15:17;;;;;;;9.47;1.90;;;6.00;87.90;;;;;;2081524;28;20212;-67
2022/02/18 03:16:19;;;;;;;10.80;2.77;;;6.00;87.30;;;;;;2081665;28;20181;-67
2022/02/18 03:17:20;;;;;;;12.00;2.42;;;6.00;87.20;;;;;;2072907;28;20181;-67
2022/02/18 03:18:22;;;;;;;11.40;2.03;;;6.00;87.10;;;;;;2073291;28;20182;-66
2022/02/18 03:19:23;;;;;;;5.13;1.92;;;6.00;87.50;;;;;;2073174;28;20288;-66
2022/02/18 03:20:24;;;;;;;8.83;2.23;;;5.90;88.30;;;;;;2065287;28;20318;-66
2022/02/18 03:21:25;;;;;;;16.83;3.03;;;5.90;88.30;;;;;;2064820;28;20173;-66
2022/02/18 03:22:25;;;;;;;9.00;2.53;;;5.80;88.70;;;;;;2074043;28;20265;-66
2022/02/18 03:23:26;;;;;;;9.80;2.40;;;5.80;89.20;;;;;;2074182;28;20256;-67
2022/02/18 03:24:27;;;;;;;10.37;2.10;;;5.80;89.00;;;;;;2083255;28;20161;-67
2022/02/18 03:25:28;;;;;;;7.82;2.63;;;5.90;89.00;;;;;;2082640;28;20260;-66
2022/02/18 03:26:29;;;;;;;9.33;2.30;;;5.90;89.10;;;;;;2082851;28;20224;-66
2022/02/18 03:27:29;;;;;;;8.50;2.00;;;5.90;89.50;;;;;;2082850;28;20661;-66
2022/02/18 03:28:30;;;;;;;11.07;2.43;;;5.80;89.80;;;;;;2082557;28;20641;-67
2022/02/18 03:29:31;;;;;;;9.87;2.00;;;5.90;89.30;;;;;;2082763;28;20162;-66
2022/02/18 03:30:32;;;;;;;7.73;2.40;;;6.00;89.20;;;;;;2082610;28;20260;-66
2022/02/18 03:31:32;;;;;;;11.20;2.30;;;6.00;90.20;;;;;;2082657;28;20832;-66
2022/02/18 03:32:33;;;;;;;8.93;1.80;;;6.10;90.00;;;;;;2082747;28;20230;-66
2022/02/18 03:33:38;;;;;;;9.43;2.53;;;6.20;89.10;;;;;;2082152;28;20185;-66
2022/02/18 03:34:39;;;;;;;11.30;2.67;;;6.30;88.70;;;;;;2073985;28;20178;-66
2022/02/18 03:35:41;;;;;;;7.03;2.33;;;6.30;87.50;;;;;;2065475;28;20250;-66
2022/02/18 03:36:41;;;;;;;8.32;2.30;;;6.30;88.30;;;;;;2065695;28;20262;-66
2022/02/18 03:37:42;;;;;;;12.23;3.13;;;6.30;88.20;;;;;;2073765;28;20182;-66
2022/02/18 03:38:43;;;;;;;10.70;3.00;;;6.20;88.80;;;;;;2082934;28;20184;-66
2022/02/18 03:39:43;;;;;;;15.97;3.20;;;6.20;89.30;;;;;;2074216;28;20182;-66
2022/02/18 03:40:46;;;;;;;7.47;2.97;;;6.10;89.50;;;;;;2073984;28;20265;-65
2022/02/18 03:41:47;;;;;;;16.55;3.92;;;6.10;89.90;;;;;;2082561;28;20177;-65
2022/02/18 03:42:48;;;;;;;19.07;4.07;;;6.20;90.00;;;;;;2082548;28;20177;-66
2022/02/18 03:43:48;;;;;;;13.40;3.83;;;6.30;88.60;;;;;;2073744;28;20178;-66
2022/02/18 03:44:49;;;;;;;12.90;3.47;;;6.30;88.10;;;;;;2073399;28;20193;-65
2022/02/18 03:45:50;;;;;;;12.23;3.23;;;6.30;88.40;;;;;;2081824;28;20205;-66
2022/02/18 03:46:50;;;;;;;16.97;2.60;;;6.30;89.20;;;;;;2073371;28;20182;-65
2022/02/18 03:47:51;;;;;;;13.07;3.10;;;6.30;91.40;;;;;;2073057;28;20181;-66
2022/02/18 03:48:52;;;;;;;10.17;2.60;;;6.30;91.90;;;;;;2081051;28;20181;-67
2022/02/18 03:49:52;;;;;;;10.50;2.97;;;6.40;92.00;;;;;;2072941;28;20184;-67
2022/02/18 03:50:53;;;;;;;10.67;2.53;;;6.40;92.80;;;;;;2073061;28;20178;-66
2022/02/18 03:51:54;;;;;;;10.67;3.17;;;6.50;93.30;;;;;;2081722;28;20177;-66
2022/02/18 03:52:57;;;;;;;8.60;2.17;;;6.50;93.50;;;;;;2072829;28;20169;-66
2022/02/18 03:53:57;;;;;;;10.63;2.33;;;6.50;94.50;;;;;;2073436;28;20178;-66
2022/02/18 03:54:58;;;;;;;6.23;2.07;;;6.50;95.90;;;;;;2081772;28;20297;-66
2022/02/18 03:55:59;;;;;;;15.37;2.63;;;6.70;96.80;;;;;;2081339;28;20639;-66
2022/02/18 03:57:00;;;;;;;10.75;2.38;;;6.70;98.00;;;;;;2072893;28;20319;-66
2022/02/18 03:58:01;;;;;;;6.43;1.83;;;6.70;98.60;;;;;;2072799;28;20206;-66
2022/02/18 03:59:02;;;;;;;7.63;2.20;;;6.70;97.90;;;;;;2081524;28;20172;-66
2022/02/18 04:00:07;;;;;;;11.95;2.42;;;6.70;98.50;;;;;;2081404;28;20178;-67
2022/02/18 04:01:08;;;;;;;11.70;2.10;;;6.80;98.90;;;;;;2072847;28;20658;-68
2022/02/18 04:02:08;;;;;;;14.10;2.33;;;6.80;98.40;;;;;;2064679;28;20191;-67
2022/02/18 04:03:09;;;;;;;8.67;2.63;;;6.80;98.20;;;;;;2072755;28;20178;-67
2022/02/18 04:04:10;;;;;;;11.57;2.60;;;6.90;98.20;;;;;;2081428;28;20605;-68
2022/02/18 04:05:10;;;;;;;13.77;2.67;;;6.80;98.90;;;;;;2072315;28;20178;-67
2022/02/18 04:06:12;;;;;;;12.40;2.27;;;6.90;98.80;;;;;;2072567;28;20185;-65
2022/02/18 04:07:12;;;;;;;10.48;2.80;;;6.90;98.30;;;;;;2081588;28;20622;-66
2022/02/18 04:08:13;;;;;;;15.37;2.97;;;7.00;98.10;;;;;;2081356;28;20189;-66
2022/02/18 04:09:13;;;;;;;9.73;2.50;;;7.10;97.60;;;;;;2072419;28;20182;-66
2022/02/18 04:10:14;;;;;;;9.07;2.20;;;7.10;97.50;;;;;;2056176;28;20698;-66
2022/02/18 04:11:15;;;;;;;6.63;2.10;;;7.10;97.60;;;;;;2064189;28;20182;-65
2022/02/18 04:12:16;;;;;;;8.40;2.53;;;7.10;97.60;;;;;;2081138;28;20184;-66
2022/02/18 04:13:16;;;;;;;10.40;2.23;;;7.10;97.70;;;;;;2081250;28;20185;-67
2022/02/18 04:14:17;;;;;;;7.30;2.10;;;7.10;97.30;;;;;;2081260;28;20178;-66
2022/02/18 04:15:18;;;;;;;9.53;2.00;;;7.10;97.60;;;;;;2072193;28;20265;-66
2022/02/18 04:16:19;;;;;;;8.40;2.27;;;7.10;97.80;;;;;;2072681;28;20276;-66
2022/02/18 04:17:22;;;;;;;13.40;2.30;;;7.10;98.30;;;;;;2064426;28;20559;-66
2022/02/18 04:18:22;;;;;;;7.85;1.88;;;7.00;98.70;;;;;;2056474;28;20177;-67
2022/02/18 04:19:23;;;;;;;6.57;1.73;;;7.10;98.40;;;;;;2063912;28;20261;-68
2022/02/18 04:20:24;;;;;;;8.13;2.23;;;7.10;98.40;;;;;;2072577;28;20320;-67
2022/02/18 04:21:25;;;;;;;10.80;1.77;;;7.00;98.90;;;;;;2072401;28;20185;-67
2022/02/18 04:22:25;;;;;;;8.60;2.23;;;6.90;99.10;;;;;;2064400;28;20176;-67
2022/02/18 04:23:26;;;;;;;6.47;2.07;;;6.90;99.30;;;;;;2072519;28;20185;-67
2022/02/18 04:24:27;;;;;;;8.33;2.50;;;6.90;99.30;;;;;;2072578;28;20174;-67
2022/02/18 04:25:27;;;;;;;8.63;2.10;;;7.00;99.30;;;;;;2072149;28;20194;-67
2022/02/18 04:26:28;;;;;;;9.57;2.20;;;6.90;99.60;;;;;;2081402;28;20170;-67
2022/02/18 04:27:29;;;;;;;11.00;2.53;;;6.90;99.40;;;;;;2081133;28;20181;-66
2022/02/18 04:28:29;;;;;;;13.87;1.93;;;6.90;99.60;;;;;;2081334;28;20546;-67
2022/02/18 04:29:30;;;;;;;8.20;1.97;;;6.90;99.50;;;;;;2080939;28;20242;-67
2022/02/18 04:30:32;;;;;;;7.30;1.60;;;7.00;99.50;;;;;;2081286;28;20177;-67
2022/02/18 04:31:33;;;;;;;9.15;2.30;;;7.10;98.90;;;;;;2072125;28;20203;-67
2022/02/18 04:32:34;;;;;;;5.17;1.83;;;7.10;98.60;;;;;;2072343;28;20174;-67
2022/02/18 04:33:34;;;;;;;8.23;2.25;;;7.20;98.20;;;;;;2081105;28;20177;-67
2022/02/18 04:34:35;;;;;;;8.10;2.10;;;7.20;98.10;;;;;;2072310;28;20176;-67
2022/02/18 04:35:36;;;;;;;6.70;1.87;;;7.20;98.00;;;;;;2063534;28;20198;-66
2022/02/18 04:36:36;;;;;;;5.70;1.60;;;7.20;97.80;;;;;;2072240;28;20260;-67
2022/02/18 04:37:37;;;;;;;8.97;1.63;;;7.20;97.60;;;;;;2081041;28;20177;-67
2022/02/18 04:38:39;;;;;;;5.63;2.30;;;7.20;97.50;;;;;;2081090;28;20161;-67
2022/02/18 04:39:39;;;;;;;6.63;1.77;;;7.20;97.70;;;;;;2064179;28;20258;-67
2022/02/18 04:40:40;;;;;;;6.03;1.93;;;7.20;98.30;;;;;;2064163;28;20181;-67
2022/02/18 04:41:42;;;;;;;8.63;1.90;;;7.20;98.10;;;;;;2072102;28;20232;-67
2022/02/18 04:42:44;;;;;;;6.75;2.08;;;7.20;98.20;;;;;;2072304;28;20197;-67
2022/02/18 04:43:45;;;;;;;5.93;1.63;;;7.20;98.50;;;;;;2064390;28;20190;-66
2022/02/18 04:44:45;;;;;;;5.77;1.77;;;7.30;97.90;;;;;;2063843;28;20606;-67
2022/02/18 04:45:46;;;;;;;7.17;1.70;;;7.20;97.90;;;;;;2071792;28;20200;-67
2022/02/18 04:46:46;;;;;;;3.80;1.57;;;7.20;98.60;;;;;;2072057;28;20188;-67
2022/02/18 04:47:47;;;;;;;9.87;2.10;;;7.10;98.80;;;;;;2072051;28;20196;-67
2022/02/18 04:48:48;;;;;;;7.43;1.93;;;7.10;99.10;;;;;;2072017;28;20177;-67
2022/02/18 04:49:48;;;;;;;10.90;2.43;;;7.30;98.70;;;;;;2080787;28;20676;-66
2022/02/18 04:50:49;;;;;;;4.30;1.40;;;7.20;98.50;;;;;;2072103;28;20703;-67
2022/02/18 04:51:50;;;;;;;10.13;2.60;;;7.20;98.70;;;;;;2063932;28;20187;-67
2022/02/18 04:52:51;;;;;;;10.73;2.17;;;7.20;99.00;;;;;;2072132;28;20188;-67
2022/02/18 04:53:51;;;;;;;6.53;1.70;;;7.20;98.80;;;;;;2072054;28;20212;-67
2022/02/18 04:54:54;;;;;;;6.43;1.83;;;7.30;98.50;;;;;;2080875;28;20217;-66
2022/02/18 04:55:55;;;;;;;3.70;1.55;;;7.30;97.90;;;;;;2071909;28;20206;-67
2022/02/18 04:56:55;;;;;;;5.73;1.67;;;7.30;98.20;;;;;;2063911;28;20193;-67
2022/02/18 04:57:56;;;;;;;6.03;1.53;;;7.40;98.10;;;;;;2071906;28;20173;-67
2022/02/18 04:58:57;;;;;;;6.60;1.33;;;7.40;98.00;;;;;;2080735;28;20221;-67
2022/02/18 04:59:57;;;;;;;3.17;1.50;;;7.40;98.20;;;;;;2080849;28;20189;-67
2022/02/18 05:00:58;;;;;;;6.03;1.30;;;7.40;98.10;;;;;;2071997;28;20194;-66
2022/02/18 05:01:59;;;;;;;6.63;1.40;;;7.40;97.80;;;;;;2063972;28;20262;-69
2022/02/18 05:03:00;;;;;;;7.43;1.70;;;7.50;97.80;;;;;;2063863;28;20616;-67
2022/02/18 05:04:00;;;;;;;6.60;2.03;;;7.40;98.00;;;;;;2071940;28;20429;-67
2022/02/18 05:05:02;;;;;;;4.47;2.13;;;7.40;98.20;;;;;;2080503;28;20666;-66
2022/02/18 05:06:03;;;;;;;8.75;2.80;;;7.30;98.60;;;;;;2080692;28;20211;-66
2022/02/18 05:07:04;;;;;;;10.02;3.22;;;7.30;98.60;;;;;;2080735;28;20647;-67
2022/02/18 05:08:05;;;;;;;5.87;2.70;;;7.40;98.80;;;;;;2071987;28;20260;-66
2022/02/18 05:09:05;;;;;;;6.53;1.70;;;7.40;99.20;;;;;;2071929;28;20183;-67
2022/02/18 05:10:07;;;;;;;3.73;1.37;;;7.50;99.00;;;;;;2080930;28;20179;-67
2022/02/18 05:11:09;;;;;;;5.90;1.50;;;7.50;98.70;;;;;;2080699;28;20177;-67
2022/02/18 05:12:10;;;;;;;5.18;1.70;;;7.50;98.90;;;;;;2080726;28;20177;-67
2022/02/18 05:13:11;;;;;;;5.00;1.55;;;7.60;98.40;;;;;;2079835;28;20202;-66
2022/02/18 05:14:12;;;;;;;6.73;1.90;;;7.60;98.70;;;;;;2080067;28;20634;-67
2022/02/18 05:15:12;;;;;;;5.87;1.90;;;7.60;98.10;;;;;;2080357;28;20214;-67
2022/02/18 05:16:13;;;;;;;4.57;1.83;;;7.60;98.40;;;;;;2072043;28;20668;-66
2022/02/18 05:17:13;;;;;;;4.20;1.30;;;7.70;98.50;;;;;;2071936;28;20190;-66
2022/02/18 05:18:14;;;;;;;3.30;1.30;;;7.70;98.90;;;;;;2071829;28;20189;-67
2022/02/18 05:19:15;;;;;;;4.90;1.00;;;7.60;99.20;;;;;;2063530;28;20256;-66
2022/02/18 05:20:17;;;;;;;6.60;1.37;;;7.60;99.70;;;;;;2063741;28;20204;-66